Phoenix-Mesa-Gateway Airport
KIWA : now visible

Airfield :











YOU CAN JOIN US ON...

 
LOGIN :

Register | Disclaimer

   EN    FR    IT 

 









Legend :    VFR   Marginal VFR   IFR   Intensive IFR   Very Intensive IFR
Visi :
Ceiling :
>= 8 km
>= 3000ft
5 to 8 km
1000 to 3000 ft
1500m to 5 km
500 to 1000 ft
800 to 1500m
200 to 500 ft
< 800m
< 200 ft
Symbols :   Thunderstorms  Fog  Heavy snow  Heavy precipitations  Wind > 20 kt






- Airport Elevation : 1382 ft


KIWA - Phoenix-Mesa-Gateway

CURRENT METAR :
  • 151449Z 28004KT 10SM CLR 30/17 A3004

EXPIRED METARs :
  • 151349Z 02003KT 10SM CLR 30/17 A3002
  • 151249Z 28006KT 10SM CLR 29/16 A3000
  • 151155Z 20004KT 10SM CLR 29/16 A2999
  • 151135Z AUTO 14005KT 10SM CLR 30/16 A2999 RMK AO2 T02990162
  • 151115Z AUTO 16006KT 10SM CLR 30/16 A2998 RMK AO2 T03020160
  • 151055Z AUTO 19005KT 10SM CLR 30/17 A2998 RMK AO2 T03010165
  • 151035Z AUTO 22003KT 10SM CLR 30/17 A2998 RMK AO2 T03030166

TAF KIWA
Valid from the 15 at 12:00 until the 16 at 12:00 UTC


151138Z 1512/1612 VRB05KT P6SM SCT200
FM151600 28008KT P6SM SCT200
FM152100 28012G20KT P6SM FEW120 SCT200
FM160300 29011KT P6SM FEW110 SCT200
FM160800 13006KT P6SM SCT200
KZAB FIR / North America



MET'MAP, your aeronautical weather chart ! - Copyright ORBIFLY December 2007 - Disclaimer

ORBIFLY MET'MAP TEAM :

Programming & Development : Alexandra Zaïnal
Original concept : Baudouin d'Aumeries
Technical & hardware support : Manuel Goepfert
Assistance : Marc-Olivier Méhu




SOURCES & CREDITS :

   NOAA       Earth
Advisory